Time;durP1;ratioP1;P1;durP2;ratioP2;P2;SDS_P1;SDS_P2;PMS_P1;PMS_P2;Temp;Humidity;BMP_temperature;BMP_pressure;BME280_temperature;BME280_humidity;BME280_pressure;Samples;Min_cycle;Max_cycle;Signal;HPM_P1;HPM_P2
2023/08/03 00:00:06;;;;;;;5.55;1.67;;;19.90;99.90;;;;;;5035562;28;20210;-60
2023/08/03 00:02:35;;;;;;;6.18;1.55;;;19.90;99.90;;;;;;5035522;28;20297;-60
2023/08/03 00:05:03;;;;;;;7.65;1.90;;;20.00;99.90;;;;;;5035280;28;20237;-60
2023/08/03 00:07:29;;;;;;;11.13;1.98;;;20.00;99.90;;;;;;5035240;28;20225;-60
2023/08/03 00:09:56;;;;;;;7.07;1.45;;;20.00;99.90;;;;;;5035628;28;20218;-60
2023/08/03 00:12:23;;;;;;;5.00;1.45;;;20.00;99.90;;;;;;5035493;28;20210;-60
2023/08/03 00:14:50;;;;;;;3.95;1.73;;;20.00;99.90;;;;;;5035299;28;20218;-60
2023/08/03 00:17:16;;;;;;;4.28;1.70;;;20.00;99.90;;;;;;5035002;28;20206;-60
2023/08/03 00:19:45;;;;;;;4.20;1.40;;;19.90;99.90;;;;;;5035388;28;20214;-60
2023/08/03 00:22:11;;;;;;;7.45;1.67;;;20.00;99.90;;;;;;5035252;28;20210;-60
2023/08/03 00:24:38;;;;;;;7.55;1.77;;;19.90;99.90;;;;;;5035141;28;20716;-60
2023/08/03 00:27:05;;;;;;;5.43;1.60;;;20.00;99.90;;;;;;5034807;28;20233;-60
2023/08/03 00:29:32;;;;;;;7.10;1.95;;;20.00;99.90;;;;;;5035044;28;20584;-60
2023/08/03 00:32:00;;;;;;;4.60;1.50;;;20.00;99.90;;;;;;5035016;28;20480;-62
2023/08/03 00:34:26;;;;;;;3.58;1.50;;;20.00;99.90;;;;;;5035331;28;20288;-60
2023/08/03 00:36:54;;;;;;;7.70;1.90;;;20.00;99.90;;;;;;5034776;28;20202;-59
2023/08/03 00:39:21;;;;;;;8.55;1.70;;;20.10;99.90;;;;;;5035012;28;20232;-60
2023/08/03 00:41:48;;;;;;;4.60;1.55;;;20.00;99.90;;;;;;5034852;28;20222;-59
2023/08/03 00:44:15;;;;;;;5.90;1.90;;;20.10;99.90;;;;;;5034559;28;20276;-60
2023/08/03 00:46:41;;;;;;;6.28;1.90;;;20.10;99.90;;;;;;5034557;28;20233;-59
2023/08/03 00:49:08;;;;;;;5.32;1.52;;;20.10;99.90;;;;;;5034926;28;20219;-60
2023/08/03 00:51:35;;;;;;;3.80;1.67;;;20.00;99.90;;;;;;5034569;28;20206;-60
2023/08/03 00:54:07;;;;;;;5.57;1.65;;;19.90;99.90;;;;;;5034495;28;20230;-59
2023/08/03 00:56:33;;;;;;;11.65;2.15;;;19.80;99.90;;;;;;5034297;28;20623;-60
2023/08/03 00:59:00;;;;;;;4.60;1.63;;;19.70;99.90;;;;;;5033750;28;20202;-60
2023/08/03 01:01:27;;;;;;;6.75;1.50;;;19.50;99.90;;;;;;5033746;28;20337;-60
2023/08/03 01:03:54;;;;;;;4.68;1.65;;;19.50;99.90;;;;;;5034432;28;20234;-60
2023/08/03 01:06:21;;;;;;;7.70;1.70;;;19.40;99.90;;;;;;5033943;28;20237;-60
2023/08/03 01:08:47;;;;;;;6.32;1.98;;;19.30;99.90;;;;;;5034305;28;20213;-60
2023/08/03 01:11:15;;;;;;;7.90;1.80;;;19.30;99.90;;;;;;5034288;28;20616;-59
2023/08/03 01:13:42;;;;;;;6.13;2.00;;;19.20;99.90;;;;;;5034305;28;20226;-59
2023/08/03 01:16:10;;;;;;;4.90;1.80;;;19.20;99.90;;;;;;5034085;28;20582;-60
2023/08/03 01:18:37;;;;;;;7.03;1.83;;;19.10;99.90;;;;;;5034262;28;20202;-60
2023/08/03 01:21:06;;;;;;;10.32;2.15;;;19.10;99.90;;;;;;5034204;28;20615;-60
2023/08/03 01:23:34;;;;;;;4.07;1.90;;;19.10;99.90;;;;;;5033946;28;20713;-59
2023/08/03 01:26:01;;;;;;;4.28;1.50;;;19.10;99.90;;;;;;5033597;28;20214;-60
2023/08/03 01:28:27;;;;;;;9.38;2.08;;;19.00;99.90;;;;;;5034070;28;20217;-60
2023/08/03 01:30:54;;;;;;;7.47;1.80;;;19.00;99.90;;;;;;5033813;28;20697;-60
2023/08/03 01:33:21;;;;;;;6.20;1.95;;;19.00;99.90;;;;;;5033654;28;20245;-59
2023/08/03 01:35:49;;;;;;;5.97;1.70;;;18.90;99.90;;;;;;5033622;28;20209;-59
2023/08/03 01:38:15;;;;;;;7.43;1.95;;;19.00;99.90;;;;;;5033877;28;20232;-60
2023/08/03 01:40:43;;;;;;;5.68;1.58;;;19.00;99.90;;;;;;5033760;28;20213;-60
2023/08/03 01:43:10;;;;;;;5.05;1.77;;;18.90;99.90;;;;;;5033822;28;20233;-60
2023/08/03 01:45:37;;;;;;;5.30;1.60;;;18.90;99.90;;;;;;5033782;28;20352;-59
2023/08/03 01:48:04;;;;;;;8.68;2.20;;;18.90;99.90;;;;;;5033567;28;20234;-61
2023/08/03 01:50:31;;;;;;;5.47;1.70;;;18.80;99.90;;;;;;5033538;28;20736;-59
2023/08/03 01:52:57;;;;;;;5.15;1.85;;;18.80;99.90;;;;;;5033395;28;20221;-61
2023/08/03 01:55:24;;;;;;;7.50;1.73;;;18.80;99.90;;;;;;5033602;28;20217;-59
2023/08/03 01:57:52;;;;;;;4.45;1.52;;;18.80;99.90;;;;;;5033191;28;20210;-59
2023/08/03 02:00:19;;;;;;;6.75;1.90;;;18.70;99.90;;;;;;5033340;28;20205;-60
2023/08/03 02:02:45;;;;;;;6.35;1.77;;;18.70;99.90;;;;;;5033388;28;20206;-60
2023/08/03 02:05:12;;;;;;;6.45;1.60;;;18.70;99.90;;;;;;5033236;28;20284;-60
2023/08/03 02:07:45;;;;;;;5.85;1.92;;;18.70;99.90;;;;;;5032813;28;20288;-60
2023/08/03 02:10:12;;;;;;;8.40;1.70;;;18.70;99.90;;;;;;5033819;28;20206;-59
2023/08/03 02:12:39;;;;;;;6.18;1.55;;;18.70;99.90;;;;;;5032956;28;20230;-60
2023/08/03 02:15:07;;;;;;;5.05;1.52;;;18.70;99.90;;;;;;5033013;28;20273;-59
2023/08/03 02:17:34;;;;;;;7.38;1.65;;;18.70;99.90;;;;;;5032728;28;20208;-60
2023/08/03 02:20:01;;;;;;;4.72;1.33;;;18.70;99.90;;;;;;5032885;28;20206;-60
2023/08/03 02:22:28;;;;;;;5.97;1.70;;;18.70;99.90;;;;;;5033012;28;20210;-60
2023/08/03 02:24:54;;;;;;;3.92;1.27;;;18.70;99.90;;;;;;5032867;28;20226;-60
2023/08/03 02:27:21;;;;;;;8.23;1.48;;;18.70;99.90;;;;;;5032650;28;20248;-60
2023/08/03 02:29:48;;;;;;;4.50;1.58;;;18.60;99.90;;;;;;5032818;28;20217;-60
2023/08/03 02:32:16;;;;;;;6.07;1.70;;;18.60;99.90;;;;;;5032779;28;20206;-60
2023/08/03 02:34:43;;;;;;;4.63;1.58;;;18.60;99.90;;;;;;5032573;28;20234;-59
2023/08/03 02:37:09;;;;;;;5.05;1.55;;;18.60;99.90;;;;;;5032629;28;20203;-60
2023/08/03 02:39:36;;;;;;;5.38;1.45;;;18.60;99.90;;;;;;5032784;28;20206;-60
2023/08/03 02:42:03;;;;;;;6.00;1.63;;;18.60;99.90;;;;;;5032622;28;20202;-59
2023/08/03 02:44:30;;;;;;;6.57;1.60;;;18.50;99.90;;;;;;5032236;28;20686;-60
2023/08/03 02:46:56;;;;;;;5.15;1.65;;;18.50;99.90;;;;;;5031932;28;20600;-59
2023/08/03 02:49:24;;;;;;;5.40;1.75;;;18.50;99.90;;;;;;5032435;28;20233;-60
2023/08/03 02:51:51;;;;;;;4.60;1.45;;;18.60;99.90;;;;;;5032312;28;20675;-59
2023/08/03 02:54:17;;;;;;;6.07;1.60;;;18.70;99.90;;;;;;5032518;28;20420;-59
2023/08/03 02:56:44;;;;;;;9.57;1.90;;;18.70;99.90;;;;;;5031949;28;20202;-59
2023/08/03 02:59:18;;;;;;;8.32;1.70;;;18.70;99.90;;;;;;5032320;28;20209;-59
2023/08/03 03:01:44;;;;;;;8.13;1.65;;;18.70;99.90;;;;;;5032341;28;20636;-59
2023/08/03 03:04:11;;;;;;;5.65;1.77;;;18.60;99.90;;;;;;5032334;28;20241;-59
2023/08/03 03:06:39;;;;;;;8.43;1.40;;;18.70;99.90;;;;;;5032004;28;20279;-59
2023/08/03 03:09:06;;;;;;;5.82;1.65;;;18.70;99.90;;;;;;5032318;28;20201;-59
2023/08/03 03:11:32;;;;;;;3.47;1.83;;;18.60;99.90;;;;;;5031906;28;20689;-59
2023/08/03 03:13:59;;;;;;;6.13;1.80;;;18.50;99.90;;;;;;5031819;28;20628;-58
2023/08/03 03:16:26;;;;;;;9.68;1.70;;;18.40;99.90;;;;;;5031693;28;20213;-60
2023/08/03 03:18:53;;;;;;;7.50;3.28;;;18.40;99.90;;;;;;5032196;28;20260;-60
2023/08/03 03:21:20;;;;;;;8.07;1.52;;;18.40;99.90;;;;;;5032182;28;20210;-59
2023/08/03 03:23:48;;;;;;;7.15;1.70;;;18.40;99.90;;;;;;5031217;28;20248;-60
2023/08/03 03:26:15;;;;;;;7.82;2.00;;;18.30;99.90;;;;;;5031545;28;20213;-60
2023/08/03 03:28:42;;;;;;;4.72;2.13;;;18.20;99.90;;;;;;5031759;28;20284;-60
2023/08/03 03:31:08;;;;;;;9.45;3.80;;;18.20;99.90;;;;;;5031836;28;20207;-60
2023/08/03 03:33:35;;;;;;;4.10;1.50;;;18.10;99.90;;;;;;5031564;28;20643;-60
2023/08/03 03:36:02;;;;;;;5.63;1.63;;;18.20;99.90;;;;;;5031609;28;20202;-59
2023/08/03 03:38:29;;;;;;;8.40;2.17;;;18.20;99.90;;;;;;5031792;28;20212;-60
2023/08/03 03:40:57;;;;;;;7.38;1.60;;;18.10;99.90;;;;;;5031639;28;20210;-60
2023/08/03 03:43:23;;;;;;;8.00;1.73;;;18.10;99.90;;;;;;5031610;28;20222;-64
2023/08/03 03:45:50;;;;;;;8.77;1.75;;;18.20;99.90;;;;;;5031589;28;20213;-59
2023/08/03 03:48:16;;;;;;;5.78;1.60;;;18.20;99.90;;;;;;5031886;28;20229;-59
2023/08/03 03:50:43;;;;;;;7.93;1.90;;;18.10;99.90;;;;;;5031628;28;20233;-60
2023/08/03 03:53:10;;;;;;;7.28;2.05;;;18.20;99.90;;;;;;5031619;28;20226;-60
2023/08/03 03:55:37;;;;;;;6.80;2.30;;;18.20;99.90;;;;;;5031518;28;20206;-60
2023/08/03 03:58:05;;;;;;;9.15;1.75;;;18.10;99.90;;;;;;5031754;28;20213;-60
2023/08/03 04:00:33;;;;;;;6.32;1.95;;;18.10;99.90;;;;;;5031579;28;20217;-60
2023/08/03 04:02:59;;;;;;;7.63;1.55;;;18.00;99.90;;;;;;5031632;28;20289;-59
2023/08/03 04:05:26;;;;;;;8.27;1.83;;;18.00;99.90;;;;;;5031668;28;20301;-59
2023/08/03 04:07:53;;;;;;;8.65;2.03;;;18.00;99.90;;;;;;5031157;28;20312;-59
2023/08/03 04:10:19;;;;;;;8.02;2.10;;;18.00;99.90;;;;;;5031288;28;20214;-59
2023/08/03 04:12:46;;;;;;;6.10;1.58;;;18.00;99.90;;;;;;5031303;28;20405;-59
2023/08/03 04:15:14;;;;;;;4.93;1.70;;;18.10;99.90;;;;;;5031478;28;20245;-59
2023/08/03 04:17:45;;;;;;;8.65;2.20;;;18.10;99.90;;;;;;5031115;28;20229;-59
2023/08/03 04:20:12;;;;;;;6.15;1.85;;;18.10;99.90;;;;;;5031438;28;20206;-59
2023/08/03 04:22:38;;;;;;;7.20;1.90;;;18.20;99.90;;;;;;5031391;28;20221;-59
2023/08/03 04:25:06;;;;;;;7.03;1.95;;;18.30;99.90;;;;;;5031147;28;20288;-59
2023/08/03 04:27:32;;;;;;;6.35;2.13;;;18.30;99.90;;;;;;5031224;28;20233;-59
2023/08/03 04:29:59;;;;;;;8.45;2.00;;;18.50;99.90;;;;;;5031337;28;20206;-59
2023/08/03 04:32:27;;;;;;;6.95;2.40;;;18.50;99.90;;;;;;5031322;28;20210;-58
2023/08/03 04:34:54;;;;;;;6.47;2.22;;;18.60;99.90;;;;;;5033416;28;20242;-59
2023/08/03 04:37:20;;;;;;;7.07;2.67;;;18.70;99.90;;;;;;5034713;28;20260;-59
2023/08/03 04:39:49;;;;;;;5.20;1.88;;;18.80;99.90;;;;;;5034736;28;20217;-59
2023/08/03 04:42:15;;;;;;;5.05;1.67;;;18.80;99.90;;;;;;5035069;28;20214;-59
2023/08/03 04:44:42;;;;;;;12.63;6.03;;;18.80;99.90;;;;;;5034767;28;20226;-59
2023/08/03 04:47:09;;;;;;;6.07;2.15;;;18.80;99.90;;;;;;5034416;28;20901;-59
2023/08/03 04:49:37;;;;;;;5.32;1.80;;;18.80;99.90;;;;;;5034745;28;20202;-59
2023/08/03 04:52:04;;;;;;;4.53;1.92;;;18.80;99.90;;;;;;5034483;28;20217;-59
2023/08/03 04:54:31;;;;;;;5.95;2.00;;;18.80;99.90;;;;;;5034387;28;20238;-59
2023/08/03 04:56:58;;;;;;;5.80;1.60;;;18.80;99.90;;;;;;5034570;28;20213;-59
2023/08/03 04:59:24;;;;;;;6.00;1.98;;;19.10;99.90;;;;;;5034510;28;20203;-59
2023/08/03 05:01:51;;;;;;;8.02;2.38;;;19.10;99.90;;;;;;5034516;28;20210;-59
2023/08/03 05:04:18;;;;;;;7.55;1.90;;;19.40;99.90;;;;;;5034497;28;20237;-58
2023/08/03 05:06:46;;;;;;;5.15;1.60;;;19.60;99.90;;;;;;5033989;28;20218;-55
2023/08/03 05:09:12;;;;;;;5.80;1.55;;;19.90;99.90;;;;;;5034522;28;20234;-54
2023/08/03 05:11:39;;;;;;;5.57;1.63;;;20.00;99.90;;;;;;5034325;28;20214;-57
2023/08/03 05:14:06;;;;;;;4.72;1.48;;;20.20;99.90;;;;;;5034152;28;20230;-54
2023/08/03 05:16:32;;;;;;;4.47;1.90;;;20.50;99.90;;;;;;5033910;28;20670;-55
2023/08/03 05:18:59;;;;;;;7.45;2.00;;;20.70;99.90;;;;;;5034189;28;20879;-55
2023/08/03 05:21:26;;;;;;;3.90;1.38;;;20.80;99.90;;;;;;5033924;28;20692;-55
2023/08/03 05:23:54;;;;;;;4.22;1.20;;;20.80;99.90;;;;;;5033759;28;20740;-56
2023/08/03 05:26:20;;;;;;;4.57;1.50;;;20.70;99.90;;;;;;5033850;28;20635;-56
2023/08/03 05:28:47;;;;;;;4.25;1.67;;;20.50;99.90;;;;;;5034105;28;20233;-55
2023/08/03 05:31:14;;;;;;;2.03;1.10;;;20.40;99.90;;;;;;5033873;28;20206;-55
2023/08/03 05:33:40;;;;;;;3.40;1.30;;;20.40;99.90;;;;;;5033648;28;20237;-55
2023/08/03 05:36:09;;;;;;;4.63;1.50;;;20.20;99.90;;;;;;5033360;28;20221;-55
2023/08/03 05:38:35;;;;;;;4.75;2.92;;;20.20;99.90;;;;;;5033706;28;20204;-55
2023/08/03 05:41:05;;;;;;;5.38;1.15;;;20.00;99.90;;;;;;5033571;28;20210;-55
2023/08/03 05:43:31;;;;;;;2.58;0.80;;;19.90;99.90;;;;;;5033805;28;20706;-55
2023/08/03 05:46:01;;;;;;;3.33;1.10;;;19.90;99.90;;;;;;5032473;28;20568;-54
2023/08/03 05:48:30;;;;;;;2.60;1.20;;;19.90;99.90;;;;;;5033272;28;20272;-55
2023/08/03 05:50:57;;;;;;;1.85;1.00;;;19.80;99.90;;;;;;5033808;28;20206;-57
2023/08/03 05:53:24;;;;;;;3.85;0.90;;;19.80;99.90;;;;;;5033370;28;20717;-55
2023/08/03 05:55:52;;;;;;;2.38;0.90;;;19.70;99.90;;;;;;5033215;28;20206;-55
2023/08/03 05:58:20;;;;;;;2.70;0.90;;;19.70;99.90;;;;;;5033418;28;20206;-55
2023/08/03 06:00:49;;;;;;;3.78;1.52;;;19.60;99.90;;;;;;5033363;28;20236;-55
2023/08/03 06:03:17;;;;;;;3.67;1.20;;;19.60;99.90;;;;;;5033121;28;20238;-56
2023/08/03 06:05:45;;;;;;;2.28;0.80;;;19.60;99.90;;;;;;5033201;28;20221;-55
2023/08/03 06:08:16;;;;;;;4.82;1.83;;;19.60;99.90;;;;;;5033159;28;20222;-56
2023/08/03 06:10:43;;;;;;;2.65;0.63;;;19.60;99.90;;;;;;5033107;28;20575;-55
2023/08/03 06:13:12;;;;;;;2.85;0.85;;;19.60;99.90;;;;;;5033050;28;20233;-55
2023/08/03 06:15:40;;;;;;;3.60;1.10;;;19.60;99.90;;;;;;5032905;28;20245;-55
2023/08/03 06:18:10;;;;;;;2.08;0.70;;;19.60;99.90;;;;;;5032864;28;20209;-55
2023/08/03 06:20:39;;;;;;;3.42;1.05;;;19.50;99.90;;;;;;5033114;28;20293;-55
2023/08/03 06:23:06;;;;;;;2.25;0.80;;;19.50;99.90;;;;;;5032976;28;20207;-56
2023/08/03 06:25:32;;;;;;;5.97;1.02;;;19.50;99.90;;;;;;5032891;28;20674;-56
2023/08/03 06:28:03;;;;;;;2.63;1.20;;;19.60;99.90;;;;;;5032411;28;20322;-55
2023/08/03 06:30:30;;;;;;;3.65;0.95;;;19.60;99.90;;;;;;5032901;28;20385;-55
2023/08/03 06:32:58;;;;;;;3.15;1.10;;;19.50;99.90;;;;;;5032595;28;20582;-55
2023/08/03 06:35:35;;;;;;;5.00;1.00;;;19.50;99.90;;;;;;5033145;28;20571;-59
2023/08/03 06:38:02;;;;;;;3.55;1.20;;;19.50;99.90;;;;;;5032364;28;20205;-59
2023/08/03 06:40:29;;;;;;;4.63;1.23;;;19.50;99.90;;;;;;5032678;28;20256;-58
2023/08/03 06:42:55;;;;;;;2.95;1.10;;;19.70;99.90;;;;;;5032353;28;20218;-59
2023/08/03 06:45:22;;;;;;;5.03;1.33;;;20.00;99.90;;;;;;5032714;28;20237;-59
2023/08/03 06:47:49;;;;;;;5.93;1.30;;;20.40;99.90;;;;;;5032330;28;20597;-58
2023/08/03 06:50:17;;;;;;;2.38;0.90;;;21.50;99.90;;;;;;5032619;28;20213;-59
2023/08/03 06:52:44;;;;;;;4.43;1.10;;;22.30;99.90;;;;;;5032965;28;20237;-59
2023/08/03 06:55:11;;;;;;;4.40;0.98;;;23.40;99.90;;;;;;5032696;28;20280;-58
2023/08/03 06:57:38;;;;;;;2.53;1.33;;;25.60;99.90;;;;;;5032648;28;20214;-59
2023/08/03 07:00:06;;;;;;;2.40;0.93;;;28.10;99.90;;;;;;5032712;28;20232;-60
2023/08/03 07:02:31;;;;;;;3.25;0.80;;;30.30;98.30;;;;;;5032490;28;20482;-59
2023/08/03 07:04:58;;;;;;;2.85;1.08;;;31.50;93.00;;;;;;5032250;28;20254;-60
2023/08/03 07:07:27;;;;;;;2.05;0.85;;;31.50;90.40;;;;;;5031975;28;20217;-58
2023/08/03 07:09:54;;;;;;;2.22;0.80;;;30.30;90.60;;;;;;5032062;28;20222;-59
2023/08/03 07:12:21;;;;;;;2.50;0.98;;;29.60;91.10;;;;;;5032460;28;20272;-58
2023/08/03 07:14:47;;;;;;;3.00;0.90;;;29.80;90.50;;;;;;5032027;28;20231;-62
2023/08/03 07:17:14;;;;;;;3.20;1.00;;;30.50;87.20;;;;;;5031958;28;20210;-62
2023/08/03 07:19:41;;;;;;;3.20;1.05;;;31.20;83.10;;;;;;5032177;28;20234;-68
2023/08/03 07:22:09;;;;;;;3.13;1.02;;;31.20;80.00;;;;;;5031834;28;20682;-60
2023/08/03 07:24:37;;;;;;;2.42;0.93;;;30.40;78.70;;;;;;5032132;28;20226;-60
2023/08/03 07:27:04;;;;;;;2.35;0.77;;;29.40;81.80;;;;;;5031637;28;20206;-59
2023/08/03 07:29:34;;;;;;;3.90;1.25;;;28.70;83.90;;;;;;5031699;28;20709;-61
2023/08/03 07:32:00;;;;;;;4.65;1.25;;;28.70;81.50;;;;;;5031757;28;20747;-61
2023/08/03 07:34:27;;;;;;;1.98;0.85;;;29.60;80.00;;;;;;5030804;28;20233;-61
2023/08/03 07:36:54;;;;;;;5.68;1.10;;;30.20;77.70;;;;;;5030471;28;20214;-60
2023/08/03 07:39:22;;;;;;;2.17;0.88;;;30.10;76.60;;;;;;5031180;28;20206;-61
2023/08/03 07:41:50;;;;;;;1.63;0.63;;;30.40;75.10;;;;;;5031424;28;20616;-60
2023/08/03 07:44:17;;;;;;;5.60;0.90;;;30.20;75.20;;;;;;5031015;28;20222;-61
2023/08/03 07:46:44;;;;;;;4.30;1.10;;;29.40;75.00;;;;;;5030555;28;20654;-60
2023/08/03 07:49:11;;;;;;;1.98;1.00;;;28.40;77.20;;;;;;5030538;28;20582;-60
2023/08/03 07:51:38;;;;;;;5.35;1.00;;;27.50;80.50;;;;;;5031121;28;20215;-60
2023/08/03 07:54:04;;;;;;;2.20;0.55;;;26.80;82.30;;;;;;5031377;28;20225;-62
2023/08/03 07:56:31;;;;;;;2.78;0.90;;;26.30;84.70;;;;;;5030945;28;20217;-61
2023/08/03 07:59:00;;;;;;;2.33;1.00;;;26.10;85.00;;;;;;5030711;28;20202;-63
2023/08/03 08:01:27;;;;;;;2.63;0.70;;;25.80;86.20;;;;;;5030903;28;20217;-61
2023/08/03 08:03:54;;;;;;;3.03;0.80;;;25.90;87.10;;;;;;5030449;28;20605;-61
2023/08/03 08:06:21;;;;;;;1.73;0.63;;;26.40;87.00;;;;;;5030517;28;20214;-61
2023/08/03 08:08:50;;;;;;;1.30;0.70;;;27.00;84.00;;;;;;5030946;28;20229;-61
2023/08/03 08:11:19;;;;;;;3.92;1.17;;;27.10;83.10;;;;;;5033858;28;20210;-61
2023/08/03 08:13:46;;;;;;;1.67;0.70;;;27.20;83.00;;;;;;5033916;28;20667;-61
2023/08/03 08:16:16;;;;;;;3.50;0.70;;;27.70;81.50;;;;;;5033655;28;20206;-60
2023/08/03 08:18:42;;;;;;;2.03;0.65;;;28.50;79.90;;;;;;5033786;28;20470;-61
2023/08/03 08:21:11;;;;;;;1.98;0.75;;;28.80;78.20;;;;;;5034207;28;20578;-61
2023/08/03 08:23:38;;;;;;;4.57;0.80;;;29.80;76.40;;;;;;5033683;28;20740;-62
2023/08/03 08:26:10;;;;;;;2.80;0.90;;;30.70;73.10;;;;;;5033445;28;20210;-60
2023/08/03 08:28:37;;;;;;;2.20;0.80;;;31.00;73.30;;;;;;5033614;28;20229;-62
2023/08/03 08:31:03;;;;;;;4.93;1.05;;;31.00;72.80;;;;;;5033756;28;20217;-62
2023/08/03 08:33:31;;;;;;;5.47;1.10;;;31.10;71.30;;;;;;4983090;28;1462486;-62
2023/08/03 08:35:58;;;;;;;3.63;0.82;;;30.50;72.30;;;;;;5034809;28;20210;-60
2023/08/03 08:38:25;;;;;;;2.25;1.08;;;30.30;73.80;;;;;;5034906;28;20202;-59
2023/08/03 08:40:52;;;;;;;2.88;0.82;;;30.50;72.90;;;;;;5035029;28;20233;-61
2023/08/03 08:43:20;;;;;;;4.00;0.88;;;30.50;72.80;;;;;;5034810;28;20230;-61
2023/08/03 08:45:47;;;;;;;1.75;0.80;;;30.60;72.20;;;;;;5034375;28;20206;-61
2023/08/03 08:48:14;;;;;;;4.40;0.70;;;30.30;73.30;;;;;;5034748;28;20592;-60
2023/08/03 08:50:43;;;;;;;3.85;0.93;;;29.90;74.00;;;;;;5034743;28;20206;-61
2023/08/03 08:53:10;;;;;;;4.95;1.20;;;29.50;74.60;;;;;;5034581;28;20226;-61
2023/08/03 08:55:36;;;;;;;3.67;1.00;;;29.10;75.60;;;;;;5034488;28;20206;-61
2023/08/03 08:58:03;;;;;;;3.65;1.00;;;28.80;76.50;;;;;;5034233;28;20206;-61
2023/08/03 09:00:30;;;;;;;3.72;1.10;;;28.60;77.70;;;;;;5034632;28;20217;-60
2023/08/03 09:03:00;;;;;;;2.10;0.70;;;28.20;78.10;;;;;;5034295;28;20639;-61
2023/08/03 09:05:28;;;;;;;2.28;0.80;;;27.60;79.40;;;;;;5034553;28;20213;-61
2023/08/03 09:08:04;;;;;;;3.45;0.90;;;27.20;80.60;;;;;;5031399;28;20241;-62
2023/08/03 09:10:31;;;;;;;1.50;0.80;;;26.80;81.00;;;;;;5032847;28;20225;-61
2023/08/03 09:12:58;;;;;;;3.47;1.40;;;26.50;81.80;;;;;;5033747;28;20668;-61
2023/08/03 09:15:40;;;;;;;3.17;0.70;;;26.10;83.20;;;;;;5033586;28;20211;-63
2023/08/03 09:18:07;;;;;;;2.47;0.70;;;25.80;84.80;;;;;;5032960;28;20316;-62
2023/08/03 09:20:34;;;;;;;3.08;0.77;;;25.60;85.80;;;;;;5031783;28;20202;-62
2023/08/03 09:23:02;;;;;;;4.18;1.08;;;25.50;87.10;;;;;;5033627;28;20206;-65
2023/08/03 09:25:29;;;;;;;2.88;1.10;;;25.40;87.10;;;;;;5033131;28;20261;-65
2023/08/03 09:27:57;;;;;;;3.17;1.20;;;25.30;87.60;;;;;;5032479;28;20721;-64
2023/08/03 09:30:24;;;;;;;3.95;1.02;;;25.10;88.00;;;;;;5033487;28;20237;-65
2023/08/03 09:32:51;;;;;;;4.68;0.98;;;25.00;89.10;;;;;;5032650;28;20233;-63
2023/08/03 09:35:20;;;;;;;5.03;0.93;;;25.00;89.50;;;;;;5038944;28;20493;-64
2023/08/03 09:37:47;;;;;;;2.70;0.90;;;25.00;90.30;;;;;;5034137;28;20202;-64
2023/08/03 09:40:17;;;;;;;2.88;0.60;;;24.90;89.40;;;;;;5033139;28;20213;-64
2023/08/03 09:42:46;;;;;;;2.10;0.70;;;24.80;89.80;;;;;;5033574;28;20252;-64
2023/08/03 09:45:13;;;;;;;1.70;0.90;;;24.80;90.20;;;;;;5032739;28;20706;-65
2023/08/03 09:47:40;;;;;;;4.88;0.98;;;24.70;90.30;;;;;;5037214;28;20210;-63
2023/08/03 09:50:08;;;;;;;3.20;1.20;;;24.70;90.50;;;;;;5032522;28;20222;-64
2023/08/03 09:52:44;;;;;;;1.60;0.65;;;24.60;90.90;;;;;;5033075;28;20214;-63
2023/08/03 09:55:18;;;;;;;2.33;0.88;;;24.40;91.40;;;;;;5032500;28;20221;-63
2023/08/03 09:57:59;;;;;;;2.17;0.85;;;24.30;91.60;;;;;;5038327;28;20210;-63
2023/08/03 10:00:27;;;;;;;2.67;0.52;;;24.20;92.00;;;;;;5035783;28;20210;-64
2023/08/03 10:02:59;;;;;;;4.85;1.17;;;24.00;92.10;;;;;;5032586;28;20206;-62
2023/08/03 10:05:27;;;;;;;5.00;0.88;;;23.80;92.30;;;;;;5032285;28;20632;-60
2023/08/03 10:08:00;;;;;;;0.88;0.50;;;23.80;92.50;;;;;;5032031;28;20218;-60
2023/08/03 10:10:30;;;;;;;3.35;0.65;;;23.70;92.60;;;;;;5033116;28;20221;-61
2023/08/03 10:13:03;;;;;;;2.90;0.65;;;23.70;93.10;;;;;;5033119;28;20214;-62
2023/08/03 10:15:32;;;;;;;1.52;0.60;;;23.70;93.40;;;;;;5033133;28;20260;-62
2023/08/03 10:17:59;;;;;;;2.90;0.60;;;23.90;93.00;;;;;;5032133;28;20650;-61
2023/08/03 10:20:26;;;;;;;2.67;0.60;;;24.00;92.70;;;;;;5032065;28;20580;-63
2023/08/03 10:23:12;;;;;;;3.90;0.70;;;24.10;92.50;;;;;;5031721;28;20210;-62
2023/08/03 10:25:56;;;;;;;5.30;1.17;;;24.00;92.40;;;;;;5035731;28;20213;-62
2023/08/03 10:28:24;;;;;;;7.15;3.55;;;24.00;92.50;;;;;;5036400;28;20638;-62
2023/08/03 10:31:18;;;;;;;4.32;2.00;;;24.20;92.00;;;;;;5042958;28;20230;-62
2023/08/03 10:34:09;;;;;;;2.90;0.88;;;24.30;92.00;;;;;;5031298;28;20270;-61
2023/08/03 10:36:45;;;;;;;2.03;0.90;;;24.30;92.10;;;;;;5034842;28;20292;-60
2023/08/03 10:39:14;;;;;;;3.22;0.95;;;24.50;91.80;;;;;;5035872;28;20194;-62
2023/08/03 10:41:44;;;;;;;1.85;0.65;;;24.60;92.00;;;;;;5035718;28;20217;-61
2023/08/03 10:44:26;;;;;;;1.25;0.80;;;24.60;91.80;;;;;;5033448;28;20238;-59
2023/08/03 10:46:55;;;;;;;2.25;1.20;;;24.80;92.40;;;;;;5038379;28;20206;-61
2023/08/03 10:49:50;;;;;;;3.08;1.40;;;25.00;92.00;;;;;;5031638;28;20591;-61
2023/08/03 10:52:19;;;;;;;2.30;0.40;;;25.30;91.20;;;;;;5036808;28;20591;-60
2023/08/03 10:54:46;;;;;;;3.53;0.95;;;25.40;91.00;;;;;;5036300;28;20284;-61
2023/08/03 10:57:15;;;;;;;2.22;1.00;;;25.40;90.80;;;;;;5033170;28;20213;-61
2023/08/03 10:59:45;;;;;;;1.75;0.90;;;25.10;90.70;;;;;;5032719;28;20206;-65
2023/08/03 11:02:14;;;;;;;5.82;0.60;;;24.80;90.60;;;;;;5032214;28;20214;-62
2023/08/03 11:04:41;;;;;;;6.72;0.95;;;24.60;91.10;;;;;;5032128;28;20222;-63
2023/08/03 11:07:10;;;;;;;3.72;1.00;;;24.60;91.30;;;;;;5031588;28;20206;-62
2023/08/03 11:09:37;;;;;;;1.65;0.70;;;24.70;91.20;;;;;;5031704;28;20234;-64
2023/08/03 11:12:05;;;;;;;2.08;0.60;;;24.80;91.30;;;;;;5032346;28;20306;-62
2023/08/03 11:14:32;;;;;;;2.53;0.65;;;24.90;91.80;;;;;;5032031;28;20324;-62
2023/08/03 11:17:00;;;;;;;1.63;0.68;;;25.20;91.20;;;;;;5031957;28;20217;-62
2023/08/03 11:19:32;;;;;;;2.88;0.50;;;25.60;91.00;;;;;;5032046;28;20229;-62
2023/08/03 11:22:00;;;;;;;1.77;0.50;;;26.00;90.50;;;;;;5031999;28;20211;-63
2023/08/03 11:24:30;;;;;;;2.75;0.77;;;26.40;89.40;;;;;;5032105;28;20321;-63
2023/08/03 11:26:58;;;;;;;1.92;0.80;;;26.60;87.50;;;;;;5031708;28;20213;-62
2023/08/03 11:29:24;;;;;;;0.98;0.60;;;26.70;87.70;;;;;;5032014;28;20222;-63
2023/08/03 11:31:51;;;;;;;5.25;0.52;;;26.90;87.00;;;;;;5032022;28;20257;-62
2023/08/03 11:34:20;;;;;;;1.02;0.57;;;27.20;87.30;;;;;;5031629;28;20238;-63
2023/08/03 11:36:51;;;;;;;2.13;0.60;;;27.60;84.90;;;;;;5031991;28;20217;-64
2023/08/03 11:39:19;;;;;;;2.00;0.65;;;27.80;85.00;;;;;;5032051;28;20202;-63
2023/08/03 11:41:47;;;;;;;0.63;0.55;;;28.00;83.70;;;;;;5032024;28;20293;-63
2023/08/03 11:44:14;;;;;;;2.75;0.80;;;28.00;83.30;;;;;;5031332;28;20233;-62
2023/08/03 11:46:41;;;;;;;2.92;1.20;;;27.90;82.60;;;;;;5031534;28;20211;-63
2023/08/03 11:49:12;;;;;;;2.35;0.90;;;27.70;81.80;;;;;;5032209;28;20213;-63
2023/08/03 11:51:41;;;;;;;3.50;0.88;;;27.70;81.60;;;;;;5031953;28;20267;-65
2023/08/03 11:54:09;;;;;;;2.55;1.05;;;27.70;82.40;;;;;;5031803;28;20749;-63
2023/08/03 11:56:37;;;;;;;1.45;0.88;;;27.80;81.60;;;;;;5031596;28;20213;-63
2023/08/03 11:59:04;;;;;;;1.20;0.80;;;27.70;82.00;;;;;;5031569;28;20206;-61
2023/08/03 12:01:32;;;;;;;3.17;1.65;;;27.70;82.40;;;;;;5031418;28;20202;-62
2023/08/03 12:04:05;;;;;;;3.15;0.80;;;27.70;82.90;;;;;;5031551;28;20226;-60
2023/08/03 12:06:47;;;;;;;0.90;0.43;;;27.80;82.70;;;;;;5031297;28;20237;-61
2023/08/03 12:09:22;;;;;;;1.88;0.88;;;27.90;81.10;;;;;;5031453;28;20213;-62
2023/08/03 12:11:49;;;;;;;6.88;1.50;;;27.80;81.90;;;;;;5031368;28;20241;-61
2023/08/03 12:14:16;;;;;;;3.13;1.55;;;27.50;82.30;;;;;;5031391;28;20268;-62
2023/08/03 12:16:43;;;;;;;1.90;0.85;;;27.20;82.70;;;;;;5031261;28;20260;-62
2023/08/03 12:19:09;;;;;;;3.10;0.68;;;26.90;82.40;;;;;;5031467;28;20203;-63
2023/08/03 12:21:37;;;;;;;9.98;1.05;;;26.70;82.90;;;;;;5031234;28;20214;-63
2023/08/03 12:24:06;;;;;;;3.33;1.10;;;26.60;83.40;;;;;;5031132;28;20337;-63
2023/08/03 12:26:33;;;;;;;2.72;0.60;;;26.70;82.60;;;;;;5030948;28;20207;-61
2023/08/03 12:29:01;;;;;;;2.88;0.60;;;26.80;82.80;;;;;;5031204;28;20229;-63
2023/08/03 12:31:31;;;;;;;1.35;0.52;;;26.90;83.50;;;;;;5031203;28;20230;-63
2023/08/03 12:33:58;;;;;;;4.07;0.90;;;27.10;82.60;;;;;;5031610;28;20272;-62
2023/08/03 12:36:26;;;;;;;6.13;0.77;;;27.20;81.40;;;;;;5030669;28;20213;-63
2023/08/03 12:38:52;;;;;;;1.63;0.60;;;27.20;80.90;;;;;;5031041;28;20206;-62
2023/08/03 12:41:22;;;;;;;4.60;0.75;;;27.00;80.70;;;;;;5031617;28;20225;-62
2023/08/03 12:43:49;;;;;;;0.82;0.50;;;26.90;82.20;;;;;;5030905;28;20222;-63
2023/08/03 12:46:16;;;;;;;1.30;0.60;;;26.90;82.10;;;;;;5030923;28;20685;-63
2023/08/03 12:48:42;;;;;;;0.75;0.40;;;27.10;84.60;;;;;;5031240;28;20215;-63